Benvolgut visitant, si us plau, ingressa Recuperar contrasenya
AVAMET paisatges
Union Alcoyana

Xàtiva Ausiàs March

Dades diàries. Acumulats / Últims 30 dies disponibles

Data Temperatura (°C) Humitat rel. (%) Pressió rel. (hPa) Vent (km/h) Precipitació
Mínima Mitjana Màxima Amplitud
tèrmica
Mínima Mitjana Màxima Mínima Mitjana Màxima Predom. Mitjana Ràfega
màxima
Total
(mm)
Índex-n
Mínima Mitjana Màxima Mínima Mitjana Màxima n
0 a 1
P0 max
mm 5'
Dades mensuals acumulades fins l'últim dia disponible
05/2022 11,2 14,3 20,3 20,4 14,9 27,1 33,9 22,7 21 65 97 1.006 1.018 1.026   5,5 48,0 52,0
Dades anuals acumulades fins l'últim dia disponible
2022 1,6 9,3 20,3 13,8 9,8 19,3 33,9 32,3 9 67 99 999 1.018 1.030   5,6 81,0 662,3
Últims 30 dies disponibles
24-05-2022 17,6     22,0     26,0 8,4 58 70 86 1.006 1.009 1.014 ESE 8,4 40,0 0,0
23-05-2022 20,3     26,6     33,1 12,8 24 45 82 1.006 1.009 1.011 OSO 8,9 35,0 0,0
22-05-2022 16,5     24,6     33,9 17,4 28 54 82 1.009 1.013 1.019 SSE 4,3 28,0 0,0
21-05-2022 15,6     23,1     30,3 14,7 36 60 86 1.018 1.021 1.025 SSE 4,9 26,0 0,0
20-05-2022 17,9     22,5     27,5 9,6 50 73 95 1.023 1.024 1.026 SSE 5,5 31,0 0,0
19-05-2022 16,8     21,9     28,0 11,2 41 74 96 1.020 1.022 1.025 S 6,2 33,0 0,0
18-05-2022 16,2     22,5     29,3 13,1 46 72 93 1.017 1.019 1.021 S 5,4 29,0 0,0
17-05-2022 16,1     23,9     33,2 17,1 36 63 88 1.016 1.019 1.021 SSE 4,9 22,0 0,0
16-05-2022 15,7     23,6     32,5 16,8 31 62 95 1.017 1.019 1.021 S 3,9 28,0 0,0
15-05-2022 14,8     21,2     31,3 16,5 33 69 95 1.015 1.017 1.020 SSO 5,2 24,0 0,0
14-05-2022 13,7     20,5     28,5 14,8 42 71 96 1.016 1.019 1.022 S 5,0 26,0 0,0
13-05-2022 12,9     19,6     26,8 13,9 41 73 95 1.020 1.021 1.023 SSO 5,7 28,0 0,0
12-05-2022 14,1     18,8     24,8 10,7 41 73 91 1.020 1.022 1.023 SSO 6,4 28,0 0,0
11-05-2022 13,3     21,5     29,7 16,4 24 51 81 1.018 1.021 1.023 SSO 4,6 22,0 0,0
10-05-2022 12,1     20,4     28,1 16,0 26 54 84 1.020 1.023 1.025 S 4,2 22,0 0,0
09-05-2022 12,1     18,9     26,7 14,6 30 61 88 1.021 1.022 1.025 SSO 5,0 20,0 0,0
08-05-2022 12,6     19,4     28,5 15,9 30 55 77 1.017 1.019 1.022 SE 5,1 28,0 0,0
07-05-2022 11,2     18,9     27,1 15,9 21 52 85 1.018 1.020 1.022 S 4,7 29,0 0,0
06-05-2022 11,6     18,4     24,3 12,7 27 53 82 1.019 1.021 1.023 SSE 5,3 24,0 0,0
05-05-2022 12,5     17,5     23,1 10,6 37 61 93 1.019 1.020 1.023 S 4,2 24,0 0,0
04-05-2022 12,9     13,6     14,9 2,0 84 92 97 1.014 1.017 1.020 SE 7,6 38,0 36,5 0,89 9,20
03-05-2022 12,5     14,4     17,2 4,7 70 86 97 1.011 1.013 1.016 SE 6,0 29,0 1,6
02-05-2022 11,7     15,3     19,4 7,7 62 78 92 1.011 1.014 1.017 S 5,6 44,0 13,9 0,30 4,50
01-05-2022 13,3     19,3     26,9 13,6 34 59 85 1.015 1.018 1.020 SSO 5,7 48,0 0,0
30-04-2022 11,2     19,2     29,6 18,4 21 51 79 1.018 1.022 1.025 SO 4,6 46,0 0,0
29-04-2022 10,3     16,4     22,6 12,3 31 64 95 1.023 1.024 1.026 SSE 5,0 35,0 0,3
28-04-2022 12,5     13,9     15,8 3,3 71 90 99 1.018 1.020 1.025 SSO 2,5 18,0 13,7 0,29 0,50
27-04-2022 11,6     14,5     18,3 6,7 60 81 96 1.016 1.017 1.020 SO 2,9 24,0 0,3
26-04-2022 12,5     16,3     21,9 9,4 41 70 91 1.014 1.015 1.017 SSO 5,1 28,0 0,0
25-04-2022 10,7     17,3     23,8 13,1 34 52 91 1.011 1.013 1.015 S 7,6 28,0 0,0
Últims 13 mesos disponibles
04/2022 1,9 10,4 14,5 14,9 9,8 19,7 30,4 28,5 41 64 94 1.004 1.015 1.024 OSO 7,5 81,0 141,7
03/2022 5,7 9,4 13,0 12,1 10,2 15,6 22,4 16,7 45 81 98 1.004 1.016 1.025 ENE 6,6 65,2 456,8
02/2022 5,2 8,2 12,5 13,0 12,6 19,3 28,4 23,2 36 62 84 1.011 1.019 1.026 SSO 4,0 63,2 4,2
01/2022 1,6 5,2 12,6 10,1 9,8 16,5 25,0 23,4 31 62 87 1.009 1.022 1.029 SSO 4,2 57,4 7,6
12/2021 5,6 10,0 17,3 13,6 11,1 18,0 23,7 18,1 43 63 89 1.004 1.016 1.024 OSO 7,3 74,0 1,2
11/2021 5,8 9,5 19,0 13,3 11,6 17,9 24,8 19,0 45 62 88 1.001 1.011 1.023 OSO 5,8 62,9 63,7
10/2021 10,4 15,1 19,4 19,5 18,6 24,9 29,7 19,3 49 66 80 1.005 1.014 1.021 OSO 4,0 64,8 44,6
09/2021 15,6 19,6 23,1 23,8 20,8 29,1 34,1 18,5 55 67 84 1.008 1.012 1.019 NNO 4,3 74,0 176,9
08/2021 19,4 21,8 25,8 26,5 25,7 32,2 40,5 21,1 45 65 80 1.002 1.010 1.015 NNE 5,2 68,5 20,1
07/2021 16,9 21,1 23,9 26,7 26,8 33,5 39,2 22,3 45 60 73 1.004 1.009 1.016 N 6,0 57,4 9,9
06/2021 15,7 18,4 21,5 23,5 20,6 29,1 36,4 20,7 45 64 85 1.005 1.011 1.017 NNE 5,4 72,2 13,3
05/2021 10,7 15,1 20,8 20,1 15,7 26,2 33,6 22,9 37 59 87 1.011 1.018 1.027 NNE 6,5 57,4 37,7
04/2021 6,1 10,6 13,3 14,5 12,7 19,8 28,5 22,4 48 70 87 1.005 1.016 1.027 NNE 4,2 57,4 106,7
Tots els anys disponibles
2021 -0,7 13,9 25,8 18,3 6,3 23,6 40,5 41,2 35 64 97 988 1.012 1.029 NNE 5,7 90,2 636,4
Temperatura (°C)
Humitat relativa (%)
Velocitat del vent i ràfega màxima (km/h)
Direcció del vent (°)
Pressió (hPa)
Precipitació (mm)
Nota sobre les dades: s'avisa a l'usuari de la provisionalitat i no oficialitat d'aquestes dades
Logo AVAMET blanc
Web allotjada a Sollutia
Llicència de Creative CommonsLa web d'AVAMET i els seus continguts estan subjectes a una llicència de
Reconeixement - No Comercial - Compartir igual
Avís legal - Política de privacitat - Política de cookies
NOVES ESTACIONS:  Vila-real - les Solaes (Soci), Calles - Parque de Emergencias (Soci), Bocairent - els Corrals (Soci), Sella - el Xarquer, Xàbia - Far del Cap de la Nau (Soci), Benicàssim - Quadre de Santiago (Soci), Sant Mateu - IES Maestrat (Soci)  / el Palomar (Ajuntament/Soci) / Atzeneta del Maestrat - Pla de Meanes (Ajuntament/Soci) / Onda - Sant Gil (Soci) / Onda - Ràtils CR Cota 220 (Soci) / la Vila Joiosa (Ajuntament/Soci) / Miramar - Platja (Ajuntament/Soci) / Massanassa - IES Massanassa (Soci) / Culla - Pla de les Vinyes (Ajuntament/Soci) - - -